Time;durP1;ratioP1;P1;durP2;ratioP2;P2;SDS_P1;SDS_P2;PMS_P1;PMS_P2;Temp;Humidity;BMP_temperature;BMP_pressure;BME280_temperature;BME280_humidity;BME280_pressure;Samples;Min_cycle;Max_cycle;Signal;HPM_P1;HPM_P2
2021/11/29 00:00:44;;;;;;;25.17;18.88;;;7.00;99.90;;;;;;5071913;28;20228;-63
2021/11/29 00:03:14;;;;;;;29.50;20.70;;;7.00;99.90;;;;;;5071823;28;20278;-63
2021/11/29 00:05:43;;;;;;;22.42;16.42;;;7.00;99.90;;;;;;5071721;28;20219;-63
2021/11/29 00:08:09;;;;;;;27.80;18.35;;;7.10;99.90;;;;;;5071757;28;20224;-63
2021/11/29 00:10:37;;;;;;;20.70;17.65;;;7.10;99.90;;;;;;5071467;28;20300;-63
2021/11/29 00:13:04;;;;;;;22.15;17.58;;;7.10;99.90;;;;;;5069736;28;20243;-63
2021/11/29 00:15:32;;;;;;;21.65;17.90;;;7.10;99.90;;;;;;5071397;28;20982;-63
2021/11/29 00:18:02;;;;;;;29.10;20.63;;;7.20;99.90;;;;;;5071375;28;20246;-63
2021/11/29 00:20:29;;;;;;;23.83;17.63;;;7.20;99.90;;;;;;5071086;28;20304;-63
2021/11/29 00:22:57;;;;;;;36.33;25.45;;;7.20;99.90;;;;;;5071821;28;20233;-63
2021/11/29 00:25:25;;;;;;;31.80;20.80;;;7.20;99.90;;;;;;5071598;28;20685;-64
2021/11/29 00:27:52;;;;;;;28.50;18.35;;;7.20;99.90;;;;;;5072960;28;20244;-63
2021/11/29 00:30:19;;;;;;;32.03;23.60;;;7.20;99.90;;;;;;5075224;28;20262;-62
2021/11/29 00:32:46;;;;;;;29.30;21.45;;;7.20;99.90;;;;;;5075208;28;20224;-63
2021/11/29 00:35:13;;;;;;;23.25;17.05;;;7.20;99.90;;;;;;5075340;28;20697;-63
2021/11/29 00:37:43;;;;;;;29.52;20.23;;;7.20;99.90;;;;;;5074920;28;20220;-63
2021/11/29 00:40:13;;;;;;;27.73;19.52;;;7.20;99.90;;;;;;5074658;28;20247;-64
2021/11/29 00:42:40;;;;;;;24.60;17.23;;;7.10;99.90;;;;;;5074880;28;20224;-63
2021/11/29 00:45:09;;;;;;;24.65;18.48;;;7.10;99.90;;;;;;5075419;28;20232;-64
2021/11/29 00:47:36;;;;;;;27.10;19.05;;;7.10;99.90;;;;;;5073822;28;20232;-64
2021/11/29 00:50:04;;;;;;;26.13;18.95;;;7.10;99.90;;;;;;5074198;28;20247;-64
2021/11/29 00:52:34;;;;;;;24.90;18.65;;;7.10;99.90;;;;;;5074418;28;20228;-64
2021/11/29 00:55:01;;;;;;;26.25;19.98;;;7.20;99.90;;;;;;5074420;28;20220;-64
2021/11/29 00:57:29;;;;;;;23.70;18.48;;;7.20;99.90;;;;;;5074426;28;20409;-63
2021/11/29 00:59:56;;;;;;;22.10;18.75;;;7.20;99.90;;;;;;5074487;28;20236;-64
2021/11/29 01:02:23;;;;;;;24.30;19.33;;;7.20;99.90;;;;;;5073801;28;20228;-63
2021/11/29 01:04:50;;;;;;;22.90;17.35;;;7.10;99.90;;;;;;5074914;28;20681;-63
2021/11/29 01:07:17;;;;;;;28.75;21.27;;;7.10;99.90;;;;;;5074798;28;20231;-63
2021/11/29 01:09:44;;;;;;;28.30;21.17;;;7.10;99.90;;;;;;5074037;28;20293;-63
2021/11/29 01:12:11;;;;;;;26.42;19.40;;;7.10;99.90;;;;;;5072489;28;20604;-64
2021/11/29 01:14:40;;;;;;;29.05;21.48;;;7.10;99.90;;;;;;5073985;28;20227;-63
2021/11/29 01:17:07;;;;;;;24.67;18.65;;;7.10;99.90;;;;;;5074583;28;20228;-63
2021/11/29 01:19:34;;;;;;;24.70;19.23;;;7.10;99.90;;;;;;5074060;28;20292;-64
2021/11/29 01:22:01;;;;;;;23.98;19.20;;;7.10;99.90;;;;;;5074455;28;20235;-64
2021/11/29 01:24:28;;;;;;;27.27;21.00;;;7.10;99.90;;;;;;5074020;28;20568;-64
2021/11/29 01:26:56;;;;;;;21.83;17.80;;;7.20;99.90;;;;;;5074208;28;20220;-63
2021/11/29 01:29:23;;;;;;;25.83;20.17;;;7.20;99.90;;;;;;5073872;28;20277;-63
2021/11/29 01:31:51;;;;;;;28.52;19.50;;;7.20;99.90;;;;;;5074047;28;20227;-64
2021/11/29 01:34:18;;;;;;;29.13;20.02;;;7.20;99.90;;;;;;5074259;28;20243;-63
2021/11/29 01:36:45;;;;;;;30.25;20.05;;;7.20;99.90;;;;;;5073841;28;20220;-64
2021/11/29 01:39:13;;;;;;;28.23;20.77;;;7.20;99.90;;;;;;5073673;28;20273;-64
2021/11/29 01:41:43;;;;;;;29.48;20.58;;;7.20;99.90;;;;;;5073795;28;20247;-64
2021/11/29 01:44:10;;;;;;;28.27;20.45;;;7.20;99.90;;;;;;5074099;28;20235;-63
2021/11/29 01:46:37;;;;;;;28.15;18.13;;;7.20;99.90;;;;;;5073729;28;20278;-64
2021/11/29 01:49:06;;;;;;;26.73;18.90;;;7.20;99.90;;;;;;5074269;28;20620;-64
2021/11/29 01:51:34;;;;;;;28.67;21.00;;;7.30;99.90;;;;;;5073663;28;20620;-64
2021/11/29 01:54:01;;;;;;;27.95;19.75;;;7.30;99.90;;;;;;5073899;28;20227;-63
2021/11/29 01:56:28;;;;;;;26.40;19.23;;;7.30;99.90;;;;;;5073313;28;20224;-64
2021/11/29 01:58:55;;;;;;;31.73;22.05;;;7.20;99.90;;;;;;5073994;28;20681;-64
2021/11/29 02:01:24;;;;;;;32.65;22.13;;;7.20;99.90;;;;;;5073850;28;20685;-63
2021/11/29 02:03:57;;;;;;;32.83;21.30;;;7.10;99.90;;;;;;5073693;28;20220;-64
2021/11/29 02:06:26;;;;;;;30.80;21.33;;;7.10;99.90;;;;;;5073474;28;20674;-63
2021/11/29 02:08:54;;;;;;;30.23;20.85;;;7.10;99.90;;;;;;5073350;28;20228;-63
2021/11/29 02:11:22;;;;;;;30.15;21.33;;;7.10;99.90;;;;;;5073173;28;20592;-64
2021/11/29 02:13:49;;;;;;;33.38;22.13;;;7.10;99.90;;;;;;5071141;28;20240;-64
2021/11/29 02:16:16;;;;;;;33.95;20.42;;;7.10;99.90;;;;;;5072153;28;20228;-64
2021/11/29 02:18:44;;;;;;;30.55;21.33;;;7.10;99.90;;;;;;5073152;28;20663;-64
2021/11/29 02:21:14;;;;;;;32.58;21.92;;;7.00;99.90;;;;;;5072957;28;20239;-64
2021/11/29 02:23:46;;;;;;;31.02;21.25;;;7.00;99.90;;;;;;5072929;28;20277;-63
2021/11/29 02:26:14;;;;;;;28.80;21.27;;;6.90;99.90;;;;;;5073739;28;20227;-63
2021/11/29 02:28:44;;;;;;;29.38;20.33;;;6.90;99.90;;;;;;5072703;28;20228;-64
2021/11/29 02:31:14;;;;;;;44.47;28.20;;;6.90;99.90;;;;;;5073136;28;20277;-64
2021/11/29 02:33:41;;;;;;;31.40;20.40;;;6.90;99.90;;;;;;5068786;28;20232;-63
2021/11/29 02:36:08;;;;;;;28.63;19.98;;;6.90;99.90;;;;;;5072994;28;20232;-63
2021/11/29 02:38:37;;;;;;;28.48;20.27;;;6.80;99.90;;;;;;5072787;28;20228;-63
2021/11/29 02:41:06;;;;;;;26.17;19.15;;;6.80;99.90;;;;;;5072909;28;20293;-64
2021/11/29 02:43:33;;;;;;;25.48;17.77;;;6.80;99.90;;;;;;5072532;28;20224;-64
2021/11/29 02:46:00;;;;;;;25.30;16.27;;;6.70;99.90;;;;;;5072906;28;20285;-63
2021/11/29 02:48:40;;;;;;;24.52;19.10;;;6.70;99.90;;;;;;5073072;28;20228;-63
2021/11/29 02:51:07;;;;;;;26.23;18.40;;;6.70;99.90;;;;;;5072491;28;20565;-63
2021/11/29 02:53:34;;;;;;;21.92;15.02;;;6.70;99.90;;;;;;5072446;28;20219;-63
2021/11/29 02:56:07;;;;;;;25.80;16.25;;;6.70;99.90;;;;;;5072795;28;20231;-63
2021/11/29 02:58:34;;;;;;;20.90;15.65;;;6.70;99.90;;;;;;5072393;28;20619;-64
2021/11/29 03:01:01;;;;;;;24.65;16.58;;;6.70;99.90;;;;;;5072597;28;20611;-64
2021/11/29 03:03:28;;;;;;;24.15;16.92;;;6.70;99.90;;;;;;5072072;28;20236;-63
2021/11/29 03:05:55;;;;;;;28.60;17.98;;;6.70;99.90;;;;;;5072682;28;20709;-64
2021/11/29 03:08:22;;;;;;;27.65;18.75;;;6.70;99.90;;;;;;5072116;28;20220;-63
2021/11/29 03:10:49;;;;;;;24.75;18.20;;;6.60;99.90;;;;;;5072529;28;20231;-64
2021/11/29 03:13:17;;;;;;;25.50;18.42;;;6.60;99.90;;;;;;5070224;28;20240;-63
2021/11/29 03:15:48;;;;;;;32.15;20.38;;;6.60;99.90;;;;;;5071276;28;20282;-63
2021/11/29 03:18:15;;;;;;;28.23;19.77;;;6.60;99.90;;;;;;5072092;28;20234;-64
2021/11/29 03:20:43;;;;;;;26.95;19.15;;;6.60;99.90;;;;;;5072071;28;20236;-63
2021/11/29 03:23:13;;;;;;;23.48;17.17;;;6.60;99.90;;;;;;5072439;28;20771;-64
2021/11/29 03:25:40;;;;;;;28.95;19.13;;;6.70;99.90;;;;;;5072115;28;20246;-64
2021/11/29 03:28:07;;;;;;;30.67;19.80;;;6.70;99.90;;;;;;5072624;28;20701;-63
2021/11/29 03:30:36;;;;;;;25.90;18.08;;;6.70;99.90;;;;;;5071774;28;20223;-64
2021/11/29 03:33:02;;;;;;;28.08;18.80;;;6.70;99.90;;;;;;5072321;28;20220;-64
2021/11/29 03:35:30;;;;;;;26.63;17.77;;;6.80;99.90;;;;;;5071618;28;20224;-64
2021/11/29 03:37:56;;;;;;;30.00;19.48;;;6.80;99.90;;;;;;5072333;28;20227;-64
2021/11/29 03:40:28;;;;;;;28.52;19.80;;;6.80;99.90;;;;;;5071769;28;20698;-64
2021/11/29 03:42:55;;;;;;;29.67;20.48;;;6.80;99.90;;;;;;5072208;28;20306;-64
2021/11/29 03:45:22;;;;;;;22.88;18.58;;;6.80;99.90;;;;;;5071802;28;20277;-64
2021/11/29 03:47:51;;;;;;;29.35;20.75;;;6.80;99.90;;;;;;5072483;28;20722;-63
2021/11/29 03:50:18;;;;;;;41.28;25.80;;;6.80;99.90;;;;;;5071493;28;20220;-64
2021/11/29 03:52:45;;;;;;;30.15;19.98;;;6.70;99.90;;;;;;5072255;28;20751;-63
2021/11/29 03:55:12;;;;;;;35.00;21.17;;;6.70;99.90;;;;;;5070689;28;20293;-63
2021/11/29 03:57:39;;;;;;;33.65;22.10;;;6.80;99.90;;;;;;5071789;28;20231;-64
2021/11/29 04:00:07;;;;;;;33.13;20.60;;;6.80;99.90;;;;;;5071891;28;20219;-63
2021/11/29 04:02:34;;;;;;;29.70;21.40;;;6.80;99.90;;;;;;5075028;28;20281;-64
2021/11/29 04:05:03;;;;;;;34.42;23.80;;;6.70;99.90;;;;;;5075879;28;20232;-64
2021/11/29 04:07:30;;;;;;;35.90;22.75;;;6.70;99.90;;;;;;5075533;28;20219;-64
2021/11/29 04:09:57;;;;;;;31.55;21.83;;;6.70;99.90;;;;;;5076080;28;20231;-64
2021/11/29 04:12:24;;;;;;;34.95;23.33;;;6.70;99.90;;;;;;5073190;28;20253;-64
2021/11/29 04:14:51;;;;;;;32.97;22.17;;;6.70;99.90;;;;;;5076084;28;20216;-63
2021/11/29 04:17:18;;;;;;;36.97;24.02;;;6.70;99.90;;;;;;5075548;28;20228;-63
2021/11/29 04:19:46;;;;;;;36.53;22.80;;;6.70;99.90;;;;;;5075535;28;20681;-67
2021/11/29 04:22:15;;;;;;;36.67;23.30;;;6.70;99.90;;;;;;5075550;28;20223;-64
2021/11/29 04:24:42;;;;;;;33.50;23.20;;;6.70;99.90;;;;;;5075374;28;20650;-63
2021/11/29 04:27:10;;;;;;;46.40;27.13;;;6.70;99.90;;;;;;5075474;28;20220;-64
2021/11/29 04:29:38;;;;;;;37.53;24.20;;;6.70;99.90;;;;;;5075218;28;20228;-64
2021/11/29 04:32:06;;;;;;;34.13;21.75;;;6.70;99.90;;;;;;5075335;28;20220;-64
2021/11/29 04:34:33;;;;;;;34.10;22.75;;;6.80;99.90;;;;;;5074943;28;20236;-64
2021/11/29 04:37:01;;;;;;;38.55;24.83;;;6.80;99.90;;;;;;5075378;28;20301;-64
2021/11/29 04:39:30;;;;;;;35.55;23.02;;;6.80;99.90;;;;;;5075197;28;20617;-64
2021/11/29 04:41:57;;;;;;;38.08;24.25;;;6.80;99.90;;;;;;5075123;28;20228;-64
2021/11/29 04:44:24;;;;;;;42.03;25.17;;;6.90;99.90;;;;;;5074700;28;20232;-64
2021/11/29 04:46:53;;;;;;;40.55;26.20;;;6.80;99.90;;;;;;5075314;28;20231;-64
2021/11/29 04:49:20;;;;;;;35.20;21.73;;;6.80;99.90;;;;;;5075159;28;20240;-64
2021/11/29 04:51:47;;;;;;;34.25;21.67;;;6.80;99.90;;;;;;5074620;28;20228;-64
2021/11/29 04:54:14;;;;;;;34.25;23.95;;;6.80;99.90;;;;;;5081531;28;20227;-64
2021/11/29 04:56:43;;;;;;;37.78;26.30;;;6.90;99.90;;;;;;5074549;28;20693;-64
2021/11/29 04:59:10;;;;;;;31.92;22.55;;;6.80;99.90;;;;;;5075124;28;20598;-64
2021/11/29 05:01:37;;;;;;;35.45;23.17;;;6.80;99.90;;;;;;5074650;28;20254;-64
2021/11/29 05:04:04;;;;;;;33.70;22.35;;;6.90;99.90;;;;;;5075016;28;20224;-64
2021/11/29 05:06:31;;;;;;;32.58;22.08;;;6.80;99.90;;;;;;5074550;28;20235;-64
2021/11/29 05:08:58;;;;;;;35.22;22.98;;;6.80;99.90;;;;;;5074758;28;20228;-64
2021/11/29 05:11:25;;;;;;;36.65;24.15;;;6.80;99.90;;;;;;5074371;28;20239;-64
2021/11/29 05:13:53;;;;;;;37.40;22.92;;;6.80;99.90;;;;;;5071956;28;20612;-64
2021/11/29 05:16:20;;;;;;;35.47;23.83;;;6.80;99.90;;;;;;5069097;28;20228;-64
2021/11/29 05:18:47;;;;;;;36.20;22.60;;;6.80;99.90;;;;;;5074147;28;20224;-64
2021/11/29 05:21:14;;;;;;;40.95;26.52;;;6.80;99.90;;;;;;5074313;28;20255;-64
2021/11/29 05:23:41;;;;;;;35.55;24.20;;;6.80;99.90;;;;;;5074201;28;20238;-64
2021/11/29 05:26:08;;;;;;;31.67;23.13;;;6.80;99.90;;;;;;5074448;28;20715;-64
2021/11/29 05:28:35;;;;;;;37.28;24.58;;;6.70;99.90;;;;;;5074067;28;20231;-64
2021/11/29 05:31:03;;;;;;;36.00;25.05;;;6.70;99.90;;;;;;5074228;28;20228;-64
2021/11/29 05:33:30;;;;;;;38.13;23.25;;;6.70;99.90;;;;;;5072817;28;20740;-64
2021/11/29 05:35:57;;;;;;;33.75;23.08;;;6.70;99.90;;;;;;5072387;28;20232;-64
2021/11/29 05:38:24;;;;;;;35.70;23.42;;;6.70;99.90;;;;;;5072685;28;20305;-64
2021/11/29 05:40:51;;;;;;;39.53;24.75;;;6.70;99.90;;;;;;5072256;28;20228;-64
2021/11/29 05:43:17;;;;;;;39.67;25.95;;;6.70;99.90;;;;;;5072584;28;20239;-64
2021/11/29 05:45:44;;;;;;;34.63;24.00;;;6.70;99.90;;;;;;5072235;28;20262;-64
2021/11/29 05:48:13;;;;;;;33.60;23.83;;;6.70;99.90;;;;;;5072508;28;20220;-64
2021/11/29 05:50:40;;;;;;;38.08;25.65;;;6.70;99.90;;;;;;5072789;28;20227;-64
2021/11/29 05:53:07;;;;;;;34.88;24.20;;;6.80;99.90;;;;;;5073701;28;20628;-64
2021/11/29 05:55:35;;;;;;;36.67;25.10;;;6.80;99.90;;;;;;5073771;28;20224;-64
2021/11/29 05:58:02;;;;;;;34.38;23.50;;;6.80;99.90;;;;;;5073788;28;20248;-64
2021/11/29 06:00:29;;;;;;;32.33;22.55;;;6.70;99.90;;;;;;5073574;28;20236;-64
2021/11/29 06:02:56;;;;;;;41.75;25.98;;;6.80;99.90;;;;;;5073875;28;20231;-64
2021/11/29 06:05:24;;;;;;;36.10;24.33;;;6.80;99.90;;;;;;5073823;28;20232;-64
2021/11/29 06:07:54;;;;;;;35.78;24.13;;;6.80;99.90;;;;;;5073222;28;20228;-64
2021/11/29 06:10:21;;;;;;;35.85;24.83;;;6.80;99.90;;;;;;5073652;28;20732;-64
2021/11/29 06:12:48;;;;;;;37.63;24.60;;;6.80;99.90;;;;;;5066623;28;20238;-64
2021/11/29 06:15:17;;;;;;;40.33;27.15;;;6.80;99.90;;;;;;5073777;28;20231;-63
2021/11/29 06:17:45;;;;;;;36.85;23.52;;;6.80;99.90;;;;;;5073315;28;20621;-64
2021/11/29 06:20:19;;;;;;;37.10;24.25;;;6.90;99.90;;;;;;5073384;28;20746;-64
2021/11/29 06:22:48;;;;;;;34.13;25.70;;;6.90;99.90;;;;;;5072964;28;20329;-64
2021/11/29 06:25:14;;;;;;;36.38;22.67;;;6.90;99.90;;;;;;5072782;28;20228;-64
2021/11/29 06:27:42;;;;;;;33.72;23.02;;;6.90;99.90;;;;;;5072709;28;20736;-63
2021/11/29 06:30:09;;;;;;;37.85;23.63;;;6.90;99.90;;;;;;5073431;28;20612;-63
2021/11/29 06:32:36;;;;;;;30.90;22.65;;;6.80;99.90;;;;;;5072943;28;20277;-63
2021/11/29 06:35:03;;;;;;;34.08;22.58;;;6.80;99.90;;;;;;5073106;28;20235;-64
2021/11/29 06:37:30;;;;;;;31.05;23.30;;;6.90;99.90;;;;;;5072815;28;20225;-63
2021/11/29 06:39:59;;;;;;;34.05;21.77;;;6.80;99.90;;;;;;5073332;28;20231;-64
2021/11/29 06:42:27;;;;;;;30.52;21.50;;;6.90;99.90;;;;;;5073079;28;20240;-63
2021/11/29 06:44:54;;;;;;;36.03;26.55;;;6.80;99.90;;;;;;5072796;28;20293;-63
2021/11/29 06:47:21;;;;;;;33.08;22.35;;;6.80;99.90;;;;;;5073342;28;20232;-63
2021/11/29 06:49:48;;;;;;;34.00;22.27;;;6.80;99.90;;;;;;5072257;28;20216;-63
2021/11/29 06:52:15;;;;;;;33.03;22.98;;;6.80;99.90;;;;;;5072998;28;20266;-62
2021/11/29 06:54:43;;;;;;;35.22;25.40;;;6.80;99.90;;;;;;5072403;28;20220;-62
2021/11/29 06:57:11;;;;;;;36.15;23.65;;;6.70;99.90;;;;;;5073057;28;20223;-63
2021/11/29 06:59:38;;;;;;;31.45;24.08;;;6.70;99.90;;;;;;5072325;28;20224;-63
2021/11/29 07:02:06;;;;;;;31.40;23.67;;;6.70;99.90;;;;;;5072857;28;20228;-64
2021/11/29 07:04:33;;;;;;;30.10;22.60;;;6.70;99.90;;;;;;5072199;28;20582;-63
2021/11/29 07:07:01;;;;;;;35.75;25.75;;;6.70;99.90;;;;;;5072701;28;20240;-64
2021/11/29 07:09:28;;;;;;;33.65;23.80;;;6.70;99.90;;;;;;5072621;28;20227;-64
2021/11/29 07:11:55;;;;;;;33.33;23.05;;;6.70;99.90;;;;;;5071013;28;20601;-63
2021/11/29 07:14:23;;;;;;;30.15;22.48;;;6.70;99.90;;;;;;5068866;28;20224;-63
2021/11/29 07:16:50;;;;;;;29.77;22.27;;;6.70;99.90;;;;;;5072394;28;20232;-63
2021/11/29 07:19:18;;;;;;;33.67;24.98;;;6.60;99.90;;;;;;5072566;28;20757;-62
2021/11/29 07:21:46;;;;;;;30.33;22.20;;;6.60;99.90;;;;;;5071369;28;20220;-63
2021/11/29 07:24:14;;;;;;;35.92;23.70;;;6.60;99.90;;;;;;5072655;28;20331;-63
2021/11/29 07:26:44;;;;;;;30.60;22.52;;;6.60;99.90;;;;;;5072277;28;20228;-63
2021/11/29 07:29:12;;;;;;;27.85;20.25;;;6.60;99.90;;;;;;5072343;28;20224;-63
2021/11/29 07:31:40;;;;;;;24.48;17.63;;;6.60;99.90;;;;;;5072176;28;20223;-63
2021/11/29 07:34:07;;;;;;;30.15;20.35;;;6.60;99.90;;;;;;5072288;28;20644;-63
2021/11/29 07:36:35;;;;;;;27.10;18.52;;;6.70;99.90;;;;;;5071787;28;20686;-63
2021/11/29 07:39:03;;;;;;;25.70;18.83;;;6.70;99.90;;;;;;5072233;28;20250;-62
2021/11/29 07:41:30;;;;;;;27.73;19.60;;;6.60;99.90;;;;;;5072577;28;20231;-62
2021/11/29 07:43:57;;;;;;;28.13;19.27;;;6.60;99.90;;;;;;5072024;28;20224;-63
2021/11/29 07:46:24;;;;;;;23.45;18.25;;;6.60;99.90;;;;;;5072608;28;20231;-62
2021/11/29 07:48:52;;;;;;;24.55;19.02;;;6.60;99.90;;;;;;5071763;28;20228;-63
2021/11/29 07:51:19;;;;;;;24.08;19.20;;;6.60;99.90;;;;;;5072432;28;20219;-63
2021/11/29 07:53:46;;;;;;;28.23;20.52;;;6.70;99.90;;;;;;5060341;28;20212;-63
2021/11/29 07:56:13;;;;;;;29.95;20.10;;;6.70;99.90;;;;;;5072163;28;20301;-63
2021/11/29 07:58:40;;;;;;;29.20;21.20;;;6.70;99.90;;;;;;5071870;28;20224;-63
2021/11/29 08:01:08;;;;;;;26.92;19.58;;;6.70;99.90;;;;;;5072218;28;20251;-63
2021/11/29 08:03:35;;;;;;;26.48;19.98;;;6.70;99.90;;;;;;5071771;28;20590;-63
2021/11/29 08:06:06;;;;;;;33.47;23.00;;;6.80;99.90;;;;;;5071713;28;21057;-63
2021/11/29 08:08:33;;;;;;;31.67;20.40;;;6.80;99.90;;;;;;5072106;28;20566;-63
2021/11/29 08:11:00;;;;;;;29.63;21.15;;;6.80;99.90;;;;;;5071729;28;20224;-63
2021/11/29 08:13:26;;;;;;;38.67;21.17;;;6.80;99.90;;;;;;5072497;28;20239;-63
2021/11/29 08:15:53;;;;;;;37.55;26.13;;;6.80;99.90;;;;;;5071762;28;20239;-63
2021/11/29 08:18:20;;;;;;;35.38;24.02;;;6.80;99.90;;;;;;5072085;28;20234;-63
2021/11/29 08:20:47;;;;;;;32.60;21.98;;;6.70;99.90;;;;;;5071481;28;20281;-63
2021/11/29 08:23:16;;;;;;;35.25;23.83;;;6.70;99.90;;;;;;5072084;28;20232;-63
2021/11/29 08:25:43;;;;;;;38.33;24.85;;;6.60;99.90;;;;;;5071813;28;20340;-63
2021/11/29 08:28:11;;;;;;;33.95;23.15;;;6.70;99.90;;;;;;5072115;28;20254;-63
2021/11/29 08:30:39;;;;;;;31.75;21.95;;;6.60;99.90;;;;;;5071960;28;20232;-63
2021/11/29 08:33:06;;;;;;;32.75;23.73;;;6.70;99.90;;;;;;5071906;28;20224;-63
2021/11/29 08:35:34;;;;;;;41.65;23.25;;;6.70;99.90;;;;;;5072005;28;20242;-63
2021/11/29 08:38:01;;;;;;;36.53;24.85;;;6.70;99.90;;;;;;5071539;28;20289;-63
2021/11/29 08:40:30;;;;;;;44.22;26.10;;;6.70;99.90;;;;;;5071891;28;20803;-63
2021/11/29 08:42:59;;;;;;;32.28;22.52;;;6.70;99.90;;;;;;5071723;28;20278;-63
2021/11/29 08:45:27;;;;;;;31.13;20.95;;;6.70;99.90;;;;;;5072109;28;20601;-62
2021/11/29 08:47:57;;;;;;;32.90;22.48;;;6.70;99.90;;;;;;5071981;28;20220;-62
2021/11/29 08:50:24;;;;;;;27.67;20.35;;;6.70;99.90;;;;;;5075333;28;20228;-62
2021/11/29 08:52:51;;;;;;;30.25;20.60;;;6.70;99.90;;;;;;5075050;28;20232;-63
2021/11/29 08:55:19;;;;;;;28.35;20.65;;;6.80;99.90;;;;;;5075180;28;20235;-63
2021/11/29 08:57:47;;;;;;;29.35;19.65;;;6.80;99.90;;;;;;5074866;28;20246;-63
2021/11/29 09:00:18;;;;;;;32.42;22.55;;;6.90;99.90;;;;;;5075231;28;20700;-63
2021/11/29 09:02:46;;;;;;;33.80;23.02;;;6.90;99.90;;;;;;5074762;28;20224;-63
2021/11/29 09:05:14;;;;;;;32.92;22.35;;;6.90;99.90;;;;;;5075370;28;20228;-63
2021/11/29 09:07:41;;;;;;;28.25;20.33;;;6.80;99.90;;;;;;5075229;28;20224;-63
2021/11/29 09:10:10;;;;;;;29.70;20.85;;;6.80;99.90;;;;;;5074706;28;20674;-63
2021/11/29 09:12:37;;;;;;;31.02;22.27;;;6.80;99.90;;;;;;5075144;28;20224;-62
2021/11/29 09:15:07;;;;;;;29.65;21.15;;;6.90;99.90;;;;;;5074813;28;20581;-63
2021/11/29 09:17:34;;;;;;;32.15;20.30;;;7.00;99.90;;;;;;5074694;28;20224;-63
2021/11/29 09:20:02;;;;;;;28.92;20.23;;;7.00;99.90;;;;;;5074290;28;20584;-63
2021/11/29 09:22:29;;;;;;;29.40;21.00;;;6.90;99.90;;;;;;5074932;28;20223;-63
2021/11/29 09:24:59;;;;;;;28.60;19.70;;;6.90;99.90;;;;;;5074464;28;20216;-63
2021/11/29 09:27:26;;;;;;;32.22;20.67;;;6.90;99.90;;;;;;5075112;28;20216;-63
2021/11/29 09:29:53;;;;;;;33.95;21.00;;;6.90;99.90;;;;;;5074381;28;20228;-63
2021/11/29 09:32:22;;;;;;;30.95;20.83;;;6.90;99.90;;;;;;5074841;28;20269;-62
2021/11/29 09:34:49;;;;;;;27.60;20.20;;;6.90;99.90;;;;;;5074238;28;20231;-63
2021/11/29 09:37:16;;;;;;;30.88;20.65;;;6.90;99.90;;;;;;5074784;28;20239;-62
2021/11/29 09:39:43;;;;;;;28.83;20.88;;;6.90;99.90;;;;;;5073019;28;20323;-63
2021/11/29 09:42:10;;;;;;;30.70;20.35;;;6.90;99.90;;;;;;5059303;28;20659;-62
2021/11/29 09:44:37;;;;;;;32.35;20.92;;;6.90;99.90;;;;;;5054399;28;20220;-62
2021/11/29 09:47:04;;;;;;;31.58;23.30;;;6.80;99.90;;;;;;5054170;28;20236;-63
2021/11/29 09:49:33;;;;;;;30.42;19.60;;;6.80;99.90;;;;;;5066886;28;20239;-63
2021/11/29 09:52:01;;;;;;;30.70;20.13;;;6.90;99.90;;;;;;5073842;28;20212;-63
2021/11/29 09:54:28;;;;;;;32.25;21.23;;;6.90;99.90;;;;;;5074585;28;20219;-63
2021/11/29 09:56:56;;;;;;;31.77;19.90;;;6.90;99.90;;;;;;5070698;28;20313;-63
2021/11/29 09:59:24;;;;;;;26.83;20.02;;;6.80;99.90;;;;;;5053940;28;20235;-63
2021/11/29 10:01:51;;;;;;;31.08;19.73;;;6.80;99.90;;;;;;5056236;28;20300;-63
2021/11/29 10:04:19;;;;;;;27.52;19.20;;;6.80;99.90;;;;;;5074352;28;20220;-63
2021/11/29 10:06:54;;;;;;;31.27;18.77;;;6.80;99.90;;;;;;5073800;28;20220;-62
2021/11/29 10:09:29;;;;;;;26.08;18.30;;;6.90;99.90;;;;;;5073652;28;20984;-63
2021/11/29 10:12:23;;;;;;;36.35;24.80;;;6.90;99.90;;;;;;5073586;28;20299;-62
2021/11/29 10:15:12;;;;;;;34.42;25.55;;;7.00;99.90;;;;;;5063648;28;20216;-62
2021/11/29 10:17:39;;;;;;;33.85;23.60;;;7.00;99.90;;;;;;5053651;28;20686;-63
2021/11/29 10:20:08;;;;;;;28.05;20.02;;;7.00;99.90;;;;;;5053842;28;20233;-63
2021/11/29 10:22:36;;;;;;;24.77;17.48;;;7.10;99.90;;;;;;5073661;28;20228;-62
2021/11/29 10:25:16;;;;;;;24.40;17.10;;;7.10;99.90;;;;;;5073508;28;20230;-63
2021/11/29 10:27:45;;;;;;;26.58;18.45;;;7.20;99.90;;;;;;5073282;28;20223;-62
2021/11/29 10:30:16;;;;;;;26.88;17.63;;;7.20;99.90;;;;;;5073732;28;20223;-63
2021/11/29 10:32:46;;;;;;;31.25;18.85;;;7.20;99.90;;;;;;5073186;28;20311;-63
2021/11/29 10:35:15;;;;;;;27.65;17.67;;;7.10;99.90;;;;;;5073389;28;20228;-62
2021/11/29 10:37:46;;;;;;;24.80;17.33;;;7.10;99.90;;;;;;5073192;28;20233;-62
2021/11/29 10:40:16;;;;;;;29.33;18.65;;;7.20;99.90;;;;;;5073379;28;20236;-62
2021/11/29 10:42:44;;;;;;;28.63;19.08;;;7.20;99.90;;;;;;5072803;28;20239;-62
2021/11/29 10:45:20;;;;;;;25.25;17.38;;;7.20;99.90;;;;;;5073655;28;20624;-63
2021/11/29 10:47:49;;;;;;;25.02;17.95;;;7.30;99.90;;;;;;5072401;28;20224;-62
2021/11/29 10:50:16;;;;;;;24.80;17.70;;;7.20;99.90;;;;;;5053243;28;20307;-62
2021/11/29 10:52:47;;;;;;;22.67;15.85;;;7.20;99.90;;;;;;5052901;28;20221;-62
2021/11/29 10:55:14;;;;;;;27.17;18.80;;;7.20;99.90;;;;;;5053168;28;20221;-62
2021/11/29 10:57:49;;;;;;;25.80;19.48;;;7.20;99.90;;;;;;5052848;28;20231;-63
2021/11/29 11:00:17;;;;;;;25.02;18.00;;;7.10;99.90;;;;;;5053077;28;20234;-63
2021/11/29 11:03:02;;;;;;;28.05;19.50;;;7.20;99.90;;;;;;5062413;28;20231;-63
2021/11/29 11:05:29;;;;;;;26.38;18.70;;;7.20;99.90;;;;;;5073069;28;20231;-62
2021/11/29 11:08:11;;;;;;;28.08;18.73;;;7.20;99.90;;;;;;5072460;28;20216;-62
2021/11/29 11:10:38;;;;;;;29.42;17.85;;;7.20;99.90;;;;;;5072252;28;20215;-62
2021/11/29 11:13:05;;;;;;;22.63;16.13;;;7.20;99.90;;;;;;5072529;28;20227;-63
2021/11/29 11:15:43;;;;;;;24.88;17.10;;;7.30;99.90;;;;;;5071894;28;20263;-63
2021/11/29 11:18:11;;;;;;;22.10;16.15;;;7.20;99.90;;;;;;5071213;28;20243;-63
2021/11/29 11:20:38;;;;;;;22.65;14.90;;;7.20;99.90;;;;;;5071048;28;20688;-63
2021/11/29 11:23:05;;;;;;;20.50;14.57;;;7.30;99.90;;;;;;5070982;28;20289;-62
2021/11/29 11:25:36;;;;;;;25.23;16.60;;;7.30;99.90;;;;;;5071273;28;20220;-62
2021/11/29 11:28:05;;;;;;;26.67;17.13;;;7.20;99.90;;;;;;5071089;28;20304;-63
2021/11/29 11:30:35;;;;;;;23.33;16.83;;;7.20;99.90;;;;;;5065603;28;20360;-62
2021/11/29 11:33:06;;;;;;;23.35;16.75;;;7.20;99.90;;;;;;5052289;28;20225;-63
2021/11/29 11:35:36;;;;;;;20.92;14.35;;;7.30;99.90;;;;;;5052305;28;20698;-62
2021/11/29 11:38:05;;;;;;;17.73;14.43;;;7.30;99.90;;;;;;5052248;28;20233;-62
2021/11/29 11:40:38;;;;;;;17.15;13.45;;;7.20;99.90;;;;;;5051685;28;20255;-62
2021/11/29 11:43:08;;;;;;;21.25;16.25;;;7.20;99.90;;;;;;5062737;28;20253;-62
2021/11/29 11:45:38;;;;;;;23.20;18.85;;;7.30;99.90;;;;;;5072429;28;20223;-63
2021/11/29 11:48:06;;;;;;;22.80;17.42;;;7.30;99.90;;;;;;5072037;28;20605;-62
2021/11/29 11:50:35;;;;;;;21.40;16.17;;;7.40;99.90;;;;;;5072254;28;20236;-63
2021/11/29 11:53:03;;;;;;;27.45;19.10;;;7.40;99.90;;;;;;5071973;28;20285;-62
2021/11/29 11:55:34;;;;;;;20.08;15.20;;;7.40;99.90;;;;;;5072412;28;20224;-62
2021/11/29 11:58:05;;;;;;;22.38;14.80;;;7.50;99.90;;;;;;5072027;28;20228;-62
2021/11/29 12:00:34;;;;;;;20.85;13.60;;;7.60;99.90;;;;;;5072401;28;20247;-63
2021/11/29 12:03:18;;;;;;;18.50;13.30;;;7.60;99.90;;;;;;5070712;28;20741;-63
2021/11/29 12:05:54;;;;;;;19.27;12.35;;;7.50;99.90;;;;;;5070562;28;20219;-63
2021/11/29 12:08:33;;;;;;;18.42;13.65;;;7.50;99.90;;;;;;5069939;28;20258;-63
2021/11/29 12:11:03;;;;;;;23.52;15.52;;;7.40;99.90;;;;;;5069982;28;20632;-62
2021/11/29 12:13:41;;;;;;;19.65;12.68;;;7.40;99.90;;;;;;5070325;28;20669;-63
2021/11/29 12:16:10;;;;;;;17.27;11.95;;;7.40;99.90;;;;;;5069947;28;20223;-62
2021/11/29 12:18:50;;;;;;;20.23;14.25;;;7.30;99.90;;;;;;5071749;28;20216;-63
2021/11/29 12:21:21;;;;;;;16.48;11.98;;;7.40;99.90;;;;;;5071609;28;20242;-63
2021/11/29 12:23:54;;;;;;;16.60;12.65;;;7.30;99.90;;;;;;5075553;28;20289;-63
2021/11/29 12:26:54;;;;;;;13.50;9.63;;;7.30;99.90;;;;;;5068915;28;20273;-62
2021/11/29 12:29:49;;;;;;;18.63;13.68;;;7.30;99.90;;;;;;5074786;28;20228;-62
2021/11/29 12:32:17;;;;;;;18.42;12.20;;;7.20;99.90;;;;;;5075177;28;20250;-62
2021/11/29 12:35:08;;;;;;;22.42;16.15;;;7.20;99.90;;;;;;5075263;28;20240;-62
2021/11/29 12:37:36;;;;;;;12.30;8.70;;;7.20;99.90;;;;;;5076043;28;20228;-62
2021/11/29 12:40:07;;;;;;;15.88;12.88;;;7.10;99.90;;;;;;5074925;28;20232;-62
2021/11/29 12:42:53;;;;;;;11.73;9.32;;;7.20;99.90;;;;;;5075247;28;20232;-63
2021/11/29 12:45:26;;;;;;;13.00;9.77;;;7.20;99.90;;;;;;5075231;28;20732;-62